createdAt,value
2023-01-15T00:00:47.338Z,9.77
2023-01-15T00:01:47.336Z,9.76
2023-01-15T00:02:47.410Z,9.77
2023-01-15T00:03:47.368Z,9.77
2023-01-15T00:04:47.292Z,9.76
2023-01-15T00:05:47.278Z,9.74
2023-01-15T00:06:47.264Z,9.73
2023-01-15T00:07:47.271Z,9.72
2023-01-15T00:08:47.243Z,9.67
2023-01-15T00:09:47.256Z,9.66
2023-01-15T00:10:47.227Z,9.66
2023-01-15T00:11:47.204Z,9.66
2023-01-15T00:12:47.207Z,9.66
2023-01-15T00:13:47.223Z,9.66
2023-01-15T00:14:47.166Z,9.66
2023-01-15T00:15:47.172Z,9.64
2023-01-15T00:16:47.143Z,9.64
2023-01-15T00:17:47.129Z,9.63
2023-01-15T00:18:47.109Z,9.63
2023-01-15T00:19:47.098Z,9.62
2023-01-15T00:20:47.068Z,9.56
2023-01-15T00:21:47.060Z,9.56
2023-01-15T00:22:47.069Z,9.58
2023-01-15T00:23:47.039Z,9.56
2023-01-15T00:24:47.039Z,9.56
2023-01-15T00:25:47.018Z,9.59
2023-01-15T00:26:47.008Z,9.56
2023-01-15T00:27:47.010Z,9.58
2023-01-15T00:28:46.975Z,9.58
2023-01-15T00:29:47.002Z,9.59
2023-01-15T00:30:46.941Z,9.62
2023-01-15T00:31:46.961Z,9.62
2023-01-15T00:32:46.969Z,9.62
2023-01-15T00:33:46.959Z,9.59
2023-01-15T00:34:46.899Z,9.62
2023-01-15T00:35:46.878Z,9.58
2023-01-15T00:36:46.858Z,9.58
2023-01-15T00:37:46.871Z,9.56
2023-01-15T00:38:46.838Z,9.54
2023-01-15T00:39:46.841Z,9.54
2023-01-15T00:40:46.807Z,9.52
2023-01-15T00:41:46.800Z,9.48
2023-01-15T00:42:53.890Z,9.47
2023-01-15T00:43:47.782Z,9.44
2023-01-15T00:44:46.790Z,9.34
2023-01-15T00:45:46.749Z,9.29
2023-01-15T00:46:46.855Z,9.21
2023-01-15T00:47:46.739Z,9.15
2023-01-15T00:48:46.710Z,9.00
2023-01-15T00:49:46.688Z,8.87
2023-01-15T00:50:46.678Z,8.78
2023-01-15T00:51:46.668Z,8.75
2023-01-15T00:52:46.694Z,8.64
2023-01-15T00:53:46.650Z,8.53
2023-01-15T00:54:46.633Z,8.49
2023-01-15T00:55:46.628Z,8.39
2023-01-15T00:56:46.600Z,8.32
2023-01-15T00:57:46.599Z,8.24
2023-01-15T00:58:46.601Z,8.20
2023-01-15T00:59:46.595Z,8.18
2023-01-15T01:00:46.595Z,8.20
2023-01-15T01:01:46.644Z,8.13
2023-01-15T01:02:46.534Z,8.08
2023-01-15T01:03:46.541Z,8.06
2023-01-15T01:04:46.568Z,8.02
2023-01-15T01:05:46.529Z,8.02
2023-01-15T01:06:46.474Z,8.01
2023-01-15T01:07:46.459Z,7.99
2023-01-15T01:08:46.467Z,7.96
2023-01-15T01:09:46.465Z,7.99
2023-01-15T01:10:46.419Z,7.99
2023-01-15T01:11:46.433Z,7.98
2023-01-15T01:12:46.390Z,7.93
2023-01-15T01:13:46.406Z,7.93
2023-01-15T01:14:46.357Z,7.95
2023-01-15T01:15:46.348Z,7.95
2023-01-15T01:16:46.355Z,7.91
2023-01-15T01:17:46.327Z,7.85
2023-01-15T01:18:46.328Z,7.84
2023-01-15T01:19:46.293Z,7.85
2023-01-15T01:20:46.279Z,7.88
2023-01-15T01:21:46.277Z,7.85
2023-01-15T01:22:46.248Z,7.85
2023-01-15T01:23:46.289Z,7.84
2023-01-15T01:24:46.241Z,7.84
2023-01-15T01:25:46.210Z,7.85
2023-01-15T01:26:46.207Z,7.88
2023-01-15T01:27:46.199Z,7.88
2023-01-15T01:28:46.189Z,7.85
2023-01-15T01:29:46.167Z,7.84
2023-01-15T01:30:46.161Z,7.81
2023-01-15T01:31:46.189Z,7.81
2023-01-15T01:32:46.119Z,7.81
2023-01-15T01:33:46.128Z,7.81
2023-01-15T01:34:46.100Z,7.74
2023-01-15T01:35:46.098Z,7.70
2023-01-15T01:36:46.066Z,7.70
2023-01-15T01:37:46.071Z,7.70
2023-01-15T01:38:46.072Z,7.69
2023-01-15T01:39:46.038Z,7.69
2023-01-15T01:40:46.009Z,7.70
2023-01-15T01:41:45.999Z,7.69
2023-01-15T01:42:45.978Z,7.66
2023-01-15T01:43:45.989Z,7.59
2023-01-15T01:44:45.976Z,7.58
2023-01-15T01:45:45.994Z,7.58
2023-01-15T01:46:45.938Z,7.58
2023-01-15T01:47:45.921Z,7.58
2023-01-15T01:48:45.922Z,7.55
2023-01-15T01:49:45.888Z,7.47
2023-01-15T01:50:45.869Z,7.43
2023-01-15T01:51:45.882Z,7.44
2023-01-15T01:52:45.874Z,7.40
2023-01-15T01:53:45.859Z,7.37
2023-01-15T01:54:45.829Z,7.36
2023-01-15T01:55:45.807Z,7.31
2023-01-15T01:56:45.805Z,7.29
2023-01-15T01:57:45.784Z,7.26
2023-01-15T01:58:45.790Z,7.23
2023-01-15T01:59:45.760Z,7.21
2023-01-15T02:00:45.805Z,7.22
2023-01-15T02:01:45.816Z,7.25
2023-01-15T02:02:45.762Z,7.25
2023-01-15T02:03:45.730Z,7.25
2023-01-15T02:04:45.698Z,7.13
2023-01-15T02:05:45.679Z,7.11
2023-01-15T02:06:45.658Z,7.08
2023-01-15T02:07:45.650Z,7.05
2023-01-15T02:08:45.647Z,7.00
2023-01-15T02:09:45.640Z,6.93
2023-01-15T02:10:45.607Z,6.90
2023-01-15T02:11:45.624Z,6.90
2023-01-15T02:12:45.580Z,6.89
2023-01-15T02:13:45.589Z,6.87
2023-01-15T02:14:45.568Z,6.86
2023-01-15T02:15:45.540Z,6.86
2023-01-15T02:16:45.601Z,6.74
2023-01-15T02:17:45.527Z,6.68
2023-01-15T02:18:45.497Z,6.67
2023-01-15T02:19:45.510Z,6.65
2023-01-15T02:20:45.469Z,6.65
2023-01-15T02:21:45.469Z,6.64
2023-01-15T02:22:45.449Z,6.57
2023-01-15T02:23:45.439Z,6.56
2023-01-15T02:24:45.451Z,6.49
2023-01-15T02:25:45.408Z,6.47
2023-01-15T02:26:45.398Z,6.46
2023-01-15T02:27:45.388Z,6.41
2023-01-15T02:28:45.383Z,6.41
2023-01-15T02:29:45.374Z,6.41
2023-01-15T02:30:45.350Z,6.28
2023-01-15T02:31:45.362Z,6.22
2023-01-15T02:32:45.327Z,6.20
2023-01-15T02:33:45.298Z,6.22
2023-01-15T02:34:45.306Z,6.26
2023-01-15T02:35:45.289Z,6.26
2023-01-15T02:36:45.258Z,6.20
2023-01-15T02:37:45.249Z,6.17
2023-01-15T02:38:45.239Z,6.12
2023-01-15T02:39:45.238Z,6.13
2023-01-15T02:40:45.209Z,6.13
2023-01-15T02:41:45.197Z,6.10
2023-01-15T02:42:45.189Z,6.16
2023-01-15T02:43:45.169Z,6.12
2023-01-15T02:44:45.199Z,6.09
2023-01-15T02:45:45.151Z,6.06
2023-01-15T02:46:45.132Z,6.02
2023-01-15T02:47:45.116Z,6.06
2023-01-15T02:48:45.109Z,6.02
2023-01-15T02:49:45.122Z,6.07
2023-01-15T02:50:45.079Z,6.10
2023-01-15T02:51:45.074Z,6.17
2023-01-15T02:52:45.059Z,6.13
2023-01-15T02:53:45.039Z,6.13
2023-01-15T02:54:45.052Z,6.15
2023-01-15T02:55:45.020Z,6.17
2023-01-15T02:56:45.007Z,6.22
2023-01-15T02:57:44.997Z,6.28
2023-01-15T02:58:44.998Z,6.19
2023-01-15T02:59:44.979Z,6.15
2023-01-15T03:00:45.005Z,6.12
2023-01-15T03:01:45.077Z,6.09
2023-01-15T03:02:44.987Z,6.13
2023-01-15T03:03:44.913Z,6.17
2023-01-15T03:04:44.917Z,6.20
2023-01-15T03:05:44.889Z,6.20
2023-01-15T03:06:44.865Z,6.20
2023-01-15T03:07:44.857Z,6.25
2023-01-15T03:08:44.859Z,6.20
2023-01-15T03:09:44.847Z,6.19
2023-01-15T03:10:44.819Z,6.19
2023-01-15T03:11:44.814Z,6.16
2023-01-15T03:12:44.797Z,6.12
2023-01-15T03:13:44.783Z,6.12
2023-01-15T03:14:44.798Z,6.12
2023-01-15T03:15:44.756Z,6.02
2023-01-15T03:16:44.800Z,5.97
2023-01-15T03:17:44.728Z,5.97
2023-01-15T03:18:44.723Z,5.88
2023-01-15T03:19:44.770Z,5.87
2023-01-15T03:20:44.707Z,5.88
2023-01-15T03:21:44.687Z,5.84
2023-01-15T03:22:44.656Z,5.84
2023-01-15T03:23:44.656Z,5.87
2023-01-15T03:24:44.639Z,5.91
2023-01-15T03:25:44.649Z,5.95
2023-01-15T03:26:44.617Z,5.94
2023-01-15T03:27:44.616Z,5.91
2023-01-15T03:28:44.609Z,5.91
2023-01-15T03:29:44.583Z,5.92
2023-01-15T03:30:44.663Z,5.83
2023-01-15T03:31:44.550Z,5.81
2023-01-15T03:32:44.537Z,5.77
2023-01-15T03:33:44.514Z,5.79
2023-01-15T03:34:44.506Z,5.80
2023-01-15T03:35:44.528Z,5.80
2023-01-15T03:36:44.489Z,5.76
2023-01-15T03:37:44.476Z,5.72
2023-01-15T03:38:44.457Z,5.70
2023-01-15T03:39:44.457Z,5.72
2023-01-15T03:40:44.448Z,5.73
2023-01-15T03:41:44.455Z,5.79
2023-01-15T03:42:44.423Z,5.83
2023-01-15T03:43:44.399Z,5.87
2023-01-15T03:44:44.385Z,5.92
2023-01-15T03:45:44.413Z,5.92
2023-01-15T03:46:44.358Z,5.91
2023-01-15T03:47:44.344Z,5.88
2023-01-15T03:48:44.326Z,5.81
2023-01-15T03:49:44.322Z,5.87
2023-01-15T03:50:44.315Z,5.88
2023-01-15T03:51:44.287Z,5.90
2023-01-15T03:52:44.283Z,5.92
2023-01-15T03:53:44.318Z,5.92
2023-01-15T03:54:44.246Z,5.94
2023-01-15T03:55:44.271Z,5.92
2023-01-15T03:56:44.227Z,5.95
2023-01-15T03:57:44.217Z,5.92
2023-01-15T03:58:44.205Z,5.95
2023-01-15T03:59:44.187Z,5.97
2023-01-15T04:00:44.209Z,5.97
2023-01-15T04:01:44.284Z,5.92
2023-01-15T04:02:44.154Z,5.94
2023-01-15T04:03:44.153Z,5.98
2023-01-15T04:04:44.117Z,5.98
2023-01-15T04:05:44.108Z,5.98
2023-01-15T04:06:44.115Z,6.01
2023-01-15T04:07:44.093Z,5.99
2023-01-15T04:08:44.086Z,6.02
2023-01-15T04:09:44.055Z,6.05
2023-01-15T04:10:44.049Z,6.06
2023-01-15T04:11:44.049Z,6.07
2023-01-15T04:12:44.020Z,6.10
2023-01-15T04:13:44.029Z,6.15
2023-01-15T04:14:43.986Z,6.17
2023-01-15T04:15:44.050Z,6.17
2023-01-15T04:16:44.005Z,6.15
2023-01-15T04:17:43.968Z,6.15
2023-01-15T04:19:39.659Z,6.16
2023-01-15T04:20:39.667Z,6.15
2023-01-15T04:21:39.665Z,6.09
2023-01-15T04:22:39.785Z,6.06
2023-01-15T04:23:39.601Z,6.07
2023-01-15T04:24:39.609Z,6.06
2023-01-15T04:25:39.588Z,6.06
2023-01-15T04:26:39.579Z,6.07
2023-01-15T04:27:39.573Z,6.02
2023-01-15T04:28:39.564Z,5.98
2023-01-15T04:29:39.539Z,5.95
2023-01-15T04:30:39.618Z,5.98
2023-01-15T04:31:39.522Z,5.99
2023-01-15T04:32:39.481Z,5.88
2023-01-15T04:33:39.510Z,5.87
2023-01-15T04:34:39.459Z,5.87
2023-01-15T04:35:39.449Z,5.91
2023-01-15T04:36:39.455Z,5.92
2023-01-15T04:37:39.450Z,5.95
2023-01-15T04:38:39.454Z,5.99
2023-01-15T04:39:39.412Z,6.02
2023-01-15T04:40:39.389Z,5.97
2023-01-15T04:41:39.380Z,5.97
2023-01-15T04:42:39.371Z,5.99
2023-01-15T04:43:39.380Z,6.02
2023-01-15T04:44:39.337Z,6.06
2023-01-15T04:45:39.339Z,6.05
2023-01-15T04:46:39.364Z,5.98
2023-01-15T04:47:39.307Z,5.97
2023-01-15T04:48:39.310Z,5.95
2023-01-15T04:49:39.294Z,5.91
2023-01-15T04:50:40.478Z,5.88
2023-01-15T04:51:39.252Z,5.88
2023-01-15T04:52:39.235Z,5.92
2023-01-15T04:53:39.233Z,5.95
2023-01-15T04:54:39.306Z,5.99
2023-01-15T04:55:39.244Z,6.05
2023-01-15T04:56:39.184Z,6.07
2023-01-15T04:57:39.165Z,6.07
2023-01-15T04:58:39.188Z,6.10
2023-01-15T04:59:39.148Z,6.13
2023-01-15T05:00:39.128Z,6.10
2023-01-15T05:01:39.231Z,5.99
2023-01-15T05:02:39.177Z,5.98
2023-01-15T05:03:39.121Z,5.95
2023-01-15T05:04:39.124Z,5.97
2023-01-15T05:05:39.057Z,5.97
2023-01-15T05:06:39.064Z,5.94
2023-01-15T05:07:39.041Z,5.92
2023-01-15T05:08:39.039Z,5.88
2023-01-15T05:09:39.015Z,5.80
2023-01-15T05:10:38.998Z,5.73
2023-01-15T05:11:38.986Z,5.76
2023-01-15T05:12:38.975Z,5.73
2023-01-15T05:13:39.007Z,5.69
2023-01-15T05:14:38.937Z,5.58
2023-01-15T05:15:38.953Z,5.56
2023-01-15T05:16:38.927Z,5.61
2023-01-15T05:17:38.916Z,5.64
2023-01-15T05:18:38.921Z,5.67
2023-01-15T05:19:38.889Z,5.72
2023-01-15T05:20:38.875Z,5.69
2023-01-15T05:21:38.868Z,5.67
2023-01-15T05:22:38.852Z,5.70
2023-01-15T05:23:38.861Z,5.77
2023-01-15T05:24:38.829Z,5.79
2023-01-15T05:25:38.848Z,5.83
2023-01-15T05:26:38.828Z,5.84
2023-01-15T05:27:38.788Z,5.88
2023-01-15T05:28:38.795Z,5.92
2023-01-15T05:29:38.769Z,5.97
2023-01-15T05:30:38.769Z,6.01
2023-01-15T05:31:38.737Z,6.01
2023-01-15T05:32:38.724Z,6.01
2023-01-15T05:33:38.786Z,6.01
2023-01-15T05:34:38.698Z,6.01
2023-01-15T05:35:38.703Z,5.95
2023-01-15T05:36:38.686Z,5.91
2023-01-15T05:37:38.665Z,5.88
2023-01-15T05:38:38.648Z,5.87
2023-01-15T05:39:38.676Z,5.88
2023-01-15T05:40:38.627Z,5.92
2023-01-15T05:41:38.608Z,5.94
2023-01-15T05:42:38.618Z,5.90
2023-01-15T05:43:38.587Z,5.87
2023-01-15T05:44:38.575Z,5.88
2023-01-15T05:45:38.557Z,5.92
2023-01-15T05:46:38.578Z,5.95
2023-01-15T05:47:38.527Z,5.95
2023-01-15T05:48:38.580Z,5.97
2023-01-15T05:49:38.529Z,5.97
2023-01-15T05:50:38.487Z,6.01
2023-01-15T05:51:38.478Z,6.02
2023-01-15T05:52:38.467Z,6.05
2023-01-15T05:53:38.458Z,6.02
2023-01-15T05:54:38.589Z,6.06
2023-01-15T05:55:38.432Z,6.07
2023-01-15T05:56:38.425Z,6.09
2023-01-15T05:57:38.407Z,6.13
2023-01-15T05:58:38.386Z,6.13
2023-01-15T05:59:38.398Z,6.17
2023-01-15T06:00:38.363Z,6.19
2023-01-15T06:01:38.347Z,6.22
2023-01-15T06:02:38.427Z,6.25
2023-01-15T06:03:38.414Z,6.25
2023-01-15T06:04:38.326Z,6.22
2023-01-15T06:05:38.297Z,6.22
2023-01-15T06:06:38.338Z,6.20
2023-01-15T06:07:38.298Z,6.15
2023-01-15T06:08:38.255Z,6.15
2023-01-15T06:09:38.273Z,6.12
2023-01-15T06:10:38.238Z,6.09
2023-01-15T06:11:38.235Z,6.06
2023-01-15T06:12:38.208Z,6.02
2023-01-15T06:13:38.196Z,5.98
2023-01-15T06:14:38.194Z,5.95
2023-01-15T06:15:38.214Z,5.97
2023-01-15T06:16:40.861Z,5.98
2023-01-15T06:17:38.147Z,5.99
2023-01-15T06:18:38.127Z,6.01
2023-01-15T06:19:38.295Z,6.05
2023-01-15T06:20:38.109Z,6.07
2023-01-15T06:21:38.105Z,6.07
2023-01-15T06:22:38.078Z,6.07
2023-01-15T06:23:38.079Z,6.07
2023-01-15T06:24:38.070Z,6.07
2023-01-15T06:25:38.052Z,6.10
2023-01-15T06:26:38.036Z,6.13
2023-01-15T06:27:38.027Z,6.16
2023-01-15T06:28:38.016Z,6.16
2023-01-15T06:29:38.007Z,6.17
2023-01-15T06:30:39.396Z,6.20
2023-01-15T06:31:38.054Z,6.25
2023-01-15T06:32:37.951Z,6.28
2023-01-15T06:33:37.948Z,6.29
2023-01-15T06:34:37.934Z,6.31
2023-01-15T06:35:37.916Z,6.31
2023-01-15T06:36:37.897Z,6.34
2023-01-15T06:37:37.886Z,6.32
2023-01-15T06:38:37.888Z,6.32
2023-01-15T06:39:37.890Z,6.32
2023-01-15T06:40:37.844Z,6.32
2023-01-15T06:41:37.862Z,6.29
2023-01-15T06:42:37.823Z,6.31
2023-01-15T06:43:37.816Z,6.29
2023-01-15T06:44:37.820Z,6.25
2023-01-15T06:45:37.786Z,6.19
2023-01-15T06:46:37.814Z,6.19
2023-01-15T06:47:37.758Z,6.15
2023-01-15T06:48:37.749Z,6.09
2023-01-15T06:49:37.772Z,6.09
2023-01-15T06:50:37.716Z,6.09
2023-01-15T06:51:37.711Z,6.09
2023-01-15T06:52:37.687Z,6.10
2023-01-15T06:53:37.680Z,6.12
2023-01-15T06:54:37.677Z,6.15
2023-01-15T06:55:37.689Z,6.16
2023-01-15T06:56:37.672Z,6.13
2023-01-15T06:57:37.631Z,6.09
2023-01-15T06:58:37.624Z,6.02
2023-01-15T06:59:37.607Z,5.98
2023-01-15T07:00:37.654Z,5.99
2023-01-15T07:01:37.615Z,5.98
2023-01-15T07:02:37.567Z,5.98
2023-01-15T07:03:37.604Z,5.98
2023-01-15T07:04:37.539Z,5.99
2023-01-15T07:05:37.551Z,6.02
2023-01-15T07:06:37.522Z,6.02
2023-01-15T07:07:37.511Z,6.05
2023-01-15T07:08:37.485Z,6.02
2023-01-15T07:09:37.502Z,6.01
2023-01-15T07:10:37.477Z,6.02
2023-01-15T07:11:37.447Z,6.05
2023-01-15T07:12:37.436Z,6.07
2023-01-15T07:13:37.448Z,6.07
2023-01-15T07:14:37.419Z,6.09
2023-01-15T07:15:37.496Z,6.07
2023-01-15T07:16:37.496Z,6.05
2023-01-15T07:17:37.376Z,6.05
2023-01-15T07:18:37.396Z,6.05
2023-01-15T07:19:37.474Z,6.06
2023-01-15T07:20:37.357Z,6.05
2023-01-15T07:21:37.342Z,6.07
2023-01-15T07:22:37.375Z,6.06
2023-01-15T07:23:37.300Z,6.07
2023-01-15T07:24:37.278Z,6.12
2023-01-15T07:25:37.296Z,6.13
2023-01-15T07:26:37.267Z,6.13
2023-01-15T07:27:37.288Z,6.12
2023-01-15T07:28:37.260Z,6.12
2023-01-15T07:29:37.235Z,6.09
2023-01-15T07:30:37.266Z,6.09
2023-01-15T07:31:37.428Z,6.09
2023-01-15T07:32:37.194Z,6.07
2023-01-15T07:33:37.216Z,6.05
2023-01-15T07:34:37.246Z,6.05
2023-01-15T07:35:37.195Z,6.05
2023-01-15T07:36:37.202Z,6.02
2023-01-15T07:37:37.176Z,6.05
2023-01-15T07:38:37.132Z,6.06
2023-01-15T07:39:37.124Z,6.06
2023-01-15T07:40:37.190Z,6.05
2023-01-15T07:41:37.193Z,6.05
2023-01-15T07:42:37.215Z,6.05
2023-01-15T07:43:37.083Z,6.02
2023-01-15T07:44:37.073Z,6.05
2023-01-15T07:45:37.155Z,6.06
2023-01-15T07:46:37.027Z,6.07
2023-01-15T07:47:37.103Z,6.09
2023-01-15T07:48:37.000Z,6.07
2023-01-15T07:49:36.987Z,6.09
2023-01-15T07:50:36.990Z,6.07
2023-01-15T07:51:36.979Z,6.10
2023-01-15T07:52:36.952Z,6.06
2023-01-15T07:53:36.915Z,6.01
2023-01-15T07:54:36.904Z,5.94
2023-01-15T07:55:36.887Z,5.92
2023-01-15T07:56:36.916Z,5.94
2023-01-15T07:57:36.893Z,5.91
2023-01-15T07:58:36.908Z,5.90
2023-01-15T07:59:36.846Z,5.88
2023-01-15T08:00:36.819Z,5.84
2023-01-15T08:01:36.927Z,5.80
2023-01-15T08:02:36.799Z,5.83
2023-01-15T08:03:36.794Z,5.81
2023-01-15T08:04:36.772Z,5.83
2023-01-15T08:05:36.773Z,5.83
2023-01-15T08:06:36.758Z,5.87
2023-01-15T08:07:36.727Z,5.84
2023-01-15T08:08:36.715Z,5.88
2023-01-15T08:09:36.706Z,5.90
2023-01-15T08:10:36.689Z,5.90
2023-01-15T08:11:36.695Z,5.91
2023-01-15T08:12:36.666Z,5.88
2023-01-15T08:13:36.745Z,5.88
2023-01-15T08:14:36.636Z,5.87
2023-01-15T08:15:36.635Z,5.81
2023-01-15T08:16:36.668Z,5.79
2023-01-15T08:17:36.603Z,5.79
2023-01-15T08:18:36.643Z,5.77
2023-01-15T08:19:36.572Z,5.76
2023-01-15T08:20:36.558Z,5.77
2023-01-15T08:21:36.584Z,5.77
2023-01-15T08:22:36.534Z,5.77
2023-01-15T08:23:36.514Z,5.77
2023-01-15T08:24:36.527Z,5.77
2023-01-15T08:25:36.494Z,5.77
2023-01-15T08:26:36.496Z,5.77
2023-01-15T08:27:36.483Z,5.80
2023-01-15T08:28:36.457Z,5.80
2023-01-15T08:29:36.438Z,5.80
2023-01-15T08:30:36.442Z,5.83
2023-01-15T08:31:36.470Z,5.83
2023-01-15T08:32:36.453Z,5.87
2023-01-15T08:33:36.384Z,5.90
2023-01-15T08:34:36.388Z,5.90
2023-01-15T08:35:36.368Z,5.92
2023-01-15T08:36:36.357Z,5.97
2023-01-15T08:37:36.362Z,6.02
2023-01-15T08:38:36.325Z,6.06
2023-01-15T08:39:36.316Z,6.09
2023-01-15T08:40:36.354Z,6.10
2023-01-15T08:41:36.292Z,6.09
2023-01-15T08:42:36.318Z,6.09
2023-01-15T08:43:36.285Z,6.09
2023-01-15T08:44:36.253Z,6.12
2023-01-15T08:45:36.312Z,6.19
2023-01-15T08:46:36.253Z,6.26
2023-01-15T08:47:36.235Z,6.29
2023-01-15T08:48:36.227Z,6.32
2023-01-15T08:49:36.185Z,6.35
2023-01-15T08:50:36.185Z,6.36
2023-01-15T08:51:36.159Z,6.41
2023-01-15T08:52:36.163Z,6.43
2023-01-15T08:53:36.138Z,6.43
2023-01-15T08:54:36.129Z,6.46
2023-01-15T08:55:36.105Z,6.44
2023-01-15T08:56:36.115Z,6.44
2023-01-15T08:57:36.105Z,6.56
2023-01-15T08:58:36.064Z,7.19
2023-01-15T08:59:36.056Z,7.74
2023-01-15T09:00:36.056Z,8.13
2023-01-15T09:01:36.195Z,8.39
2023-01-15T09:02:36.037Z,8.71
2023-01-15T09:03:36.027Z,8.68
2023-01-15T09:04:36.010Z,8.45
2023-01-15T09:05:35.979Z,8.28
2023-01-15T09:06:35.974Z,8.16
2023-01-15T09:07:36.031Z,7.87
2023-01-15T09:08:35.955Z,7.72
2023-01-15T09:09:35.935Z,7.58
2023-01-15T09:10:35.915Z,7.40
2023-01-15T09:11:35.903Z,7.21
2023-01-15T09:12:35.896Z,7.11
2023-01-15T09:13:35.923Z,7.03
2023-01-15T09:14:58.947Z,6.95
2023-01-15T09:15:36.870Z,6.87
2023-01-15T09:16:35.871Z,6.78
2023-01-15T09:17:35.838Z,6.70
2023-01-15T09:18:35.848Z,6.64
2023-01-15T09:19:35.805Z,6.54
2023-01-15T09:20:35.800Z,6.52
2023-01-15T09:21:35.775Z,6.47
2023-01-15T09:22:35.765Z,6.49
2023-01-15T09:23:35.782Z,6.49
2023-01-15T09:24:35.774Z,6.46
2023-01-15T09:25:35.724Z,6.49
2023-01-15T09:26:35.714Z,6.47
2023-01-15T09:27:35.697Z,6.47
2023-01-15T09:28:35.705Z,6.44
2023-01-15T09:29:35.675Z,6.39
2023-01-15T09:30:35.695Z,6.35
2023-01-15T09:31:35.649Z,6.34
2023-01-15T09:32:35.645Z,6.34
2023-01-15T09:33:35.634Z,6.38
2023-01-15T09:34:35.615Z,6.38
2023-01-15T09:35:35.591Z,6.39
2023-01-15T09:36:35.584Z,6.34
2023-01-15T09:37:35.564Z,6.34
2023-01-15T09:38:35.542Z,6.32
2023-01-15T09:39:35.552Z,6.32
2023-01-15T09:40:35.535Z,6.35
2023-01-15T09:41:35.510Z,6.39
2023-01-15T09:42:35.495Z,6.41
2023-01-15T09:43:38.832Z,6.38
2023-01-15T09:44:36.488Z,6.39
2023-01-15T09:45:35.456Z,6.44
2023-01-15T09:46:35.443Z,6.49
2023-01-15T09:47:35.432Z,6.49
2023-01-15T09:48:35.436Z,6.49
2023-01-15T09:49:35.473Z,6.47
2023-01-15T09:50:35.405Z,6.47
2023-01-15T09:51:35.395Z,6.44
2023-01-15T09:52:35.383Z,6.44
2023-01-15T09:53:35.366Z,6.44
2023-01-15T09:54:35.364Z,6.44
2023-01-15T09:55:35.332Z,6.46
2023-01-15T09:56:35.351Z,6.39
2023-01-15T09:57:35.315Z,6.36
2023-01-15T09:58:35.363Z,6.34
2023-01-15T09:59:35.294Z,6.34
2023-01-15T10:00:35.262Z,6.35
2023-01-15T10:01:35.316Z,6.35
2023-01-15T10:02:35.243Z,6.38
2023-01-15T10:03:35.309Z,6.41
2023-01-15T10:04:35.345Z,6.44
2023-01-15T10:05:35.207Z,6.43
2023-01-15T10:06:35.198Z,6.44
2023-01-15T10:07:35.172Z,6.44
2023-01-15T10:08:35.170Z,6.46
2023-01-15T10:09:35.175Z,6.47
2023-01-15T10:10:35.133Z,6.46
2023-01-15T10:11:35.123Z,6.47
2023-01-15T10:12:35.114Z,6.46
2023-01-15T10:13:35.092Z,6.46
2023-01-15T10:14:35.130Z,6.36
2023-01-15T10:15:35.096Z,6.36
2023-01-15T10:16:35.090Z,6.35
2023-01-15T10:17:35.045Z,6.35
2023-01-15T10:18:35.045Z,6.35
2023-01-15T10:19:44.451Z,6.35
2023-01-15T10:20:36.011Z,6.34
2023-01-15T10:21:35.006Z,6.36
2023-01-15T10:22:34.986Z,6.36
2023-01-15T10:23:34.987Z,6.39
2023-01-15T10:24:35.000Z,6.39
2023-01-15T10:25:34.963Z,6.38
2023-01-15T10:26:34.943Z,6.43
2023-01-15T10:27:34.942Z,6.43
2023-01-15T10:28:34.903Z,6.43
2023-01-15T10:29:34.893Z,6.43
2023-01-15T10:30:34.903Z,6.35
2023-01-15T10:31:34.873Z,6.31
2023-01-15T10:32:34.853Z,6.32
2023-01-15T10:33:34.835Z,6.32
2023-01-15T10:34:34.836Z,6.36
2023-01-15T10:35:34.851Z,6.36
2023-01-15T10:36:34.803Z,6.38
2023-01-15T10:37:34.804Z,6.38
2023-01-15T10:38:34.787Z,6.43
2023-01-15T10:39:34.771Z,6.46
2023-01-15T10:40:34.770Z,6.49
2023-01-15T10:41:34.742Z,6.52
2023-01-15T10:42:34.724Z,6.54
2023-01-15T10:43:34.706Z,6.54
2023-01-15T10:44:34.744Z,6.54
2023-01-15T10:45:34.723Z,6.56
2023-01-15T10:46:34.731Z,6.57
2023-01-15T10:47:34.661Z,6.53
2023-01-15T10:48:34.656Z,6.53
2023-01-15T10:49:34.634Z,6.57
2023-01-15T10:50:34.640Z,6.60
2023-01-15T10:51:34.602Z,6.68
2023-01-15T10:52:34.603Z,6.77
2023-01-15T10:53:34.602Z,6.82
2023-01-15T10:54:34.570Z,6.87
2023-01-15T10:55:34.572Z,6.90
2023-01-15T10:56:34.552Z,6.92
2023-01-15T10:57:34.523Z,6.86
2023-01-15T10:58:34.514Z,6.87
2023-01-15T10:59:34.503Z,6.90
2023-01-15T11:00:34.502Z,6.95
2023-01-15T11:01:34.537Z,6.97
2023-01-15T11:02:34.640Z,7.00
2023-01-15T11:03:34.461Z,7.01
2023-01-15T11:04:34.442Z,7.04
2023-01-15T11:05:34.444Z,7.07
2023-01-15T11:06:34.428Z,7.11
2023-01-15T11:07:34.430Z,7.11
2023-01-15T11:09:07.369Z,7.11
2023-01-15T11:09:35.382Z,7.08
2023-01-15T11:10:34.363Z,7.05
2023-01-15T11:11:34.364Z,7.01
2023-01-15T11:12:34.344Z,7.00
2023-01-15T11:13:34.313Z,6.95
2023-01-15T11:14:34.321Z,6.93
2023-01-15T11:15:34.374Z,6.97
2023-01-15T11:16:34.311Z,6.96
2023-01-15T11:17:34.275Z,6.97
2023-01-15T11:18:34.262Z,6.97
2023-01-15T11:19:34.236Z,6.97
2023-01-15T11:20:34.231Z,7.01
2023-01-15T11:21:34.243Z,7.04
2023-01-15T11:22:34.222Z,7.05
2023-01-15T11:23:34.402Z,7.10
2023-01-15T11:24:34.242Z,7.11
2023-01-15T11:25:34.203Z,7.13
2023-01-15T11:26:34.170Z,7.13
2023-01-15T11:27:34.139Z,7.11
2023-01-15T11:28:34.138Z,7.43
2023-01-15T11:29:34.142Z,8.09
2023-01-15T11:30:34.119Z,8.28
2023-01-15T11:31:34.103Z,8.21
2023-01-15T11:32:34.082Z,8.11
2023-01-15T11:33:34.064Z,7.98
2023-01-15T11:34:34.051Z,7.78
2023-01-15T11:35:34.060Z,7.67
2023-01-15T11:36:34.042Z,7.51
2023-01-15T11:37:34.021Z,7.47
2023-01-15T11:38:34.011Z,7.47
2023-01-15T11:39:33.973Z,7.51
2023-01-15T11:40:33.977Z,7.58
2023-01-15T11:41:34.005Z,7.59
2023-01-15T11:42:33.962Z,7.69
2023-01-15T11:43:34.784Z,7.62
2023-01-15T11:44:33.926Z,7.69
2023-01-15T11:45:33.907Z,7.74
2023-01-15T11:46:34.014Z,7.83
2023-01-15T11:47:33.881Z,7.91
2023-01-15T11:48:33.872Z,7.88
2023-01-15T11:49:33.952Z,7.88
2023-01-15T11:50:33.832Z,7.91
2023-01-15T11:51:33.839Z,7.93
2023-01-15T11:52:33.802Z,7.90
2023-01-15T11:53:33.832Z,7.88
2023-01-15T11:54:33.791Z,7.88
2023-01-15T11:55:33.772Z,7.91
2023-01-15T11:56:33.825Z,7.90
2023-01-15T11:57:33.819Z,7.90
2023-01-15T11:58:33.736Z,7.93
2023-01-15T11:59:33.723Z,7.98
2023-01-15T12:00:33.712Z,8.02
2023-01-15T12:01:33.822Z,8.06
2023-01-15T12:02:33.693Z,8.08
2023-01-15T12:03:33.726Z,8.09
2023-01-15T12:04:33.720Z,8.09
2023-01-15T12:05:33.631Z,8.06
2023-01-15T12:06:33.680Z,8.06
2023-01-15T12:07:33.623Z,7.99
2023-01-15T12:08:33.647Z,7.81
2023-01-15T12:09:33.676Z,7.74
2023-01-15T12:10:33.562Z,7.69
2023-01-15T12:11:33.544Z,7.62
2023-01-15T12:12:33.572Z,7.58
2023-01-15T12:13:33.523Z,7.64
2023-01-15T12:14:33.518Z,7.70
2023-01-15T12:15:34.321Z,7.80
2023-01-15T12:16:33.511Z,7.80
2023-01-15T12:17:33.535Z,7.85
2023-01-15T12:18:33.586Z,7.87
2023-01-15T12:19:34.408Z,7.91
2023-01-15T12:20:33.484Z,7.78
2023-01-15T12:21:33.539Z,7.78
2023-01-15T12:22:34.315Z,7.70
2023-01-15T12:23:34.462Z,7.67
2023-01-15T12:24:34.391Z,7.66
2023-01-15T12:25:33.404Z,7.62
2023-01-15T12:26:33.360Z,7.67
2023-01-15T12:27:33.373Z,7.70
2023-01-15T12:28:33.331Z,7.77
2023-01-15T12:29:33.326Z,7.87
2023-01-15T12:30:33.324Z,7.99
2023-01-15T12:31:33.528Z,8.08
2023-01-15T12:32:33.308Z,8.09
2023-01-15T12:33:33.274Z,8.09
2023-01-15T12:34:33.256Z,8.08
2023-01-15T12:35:33.232Z,8.17
2023-01-15T12:36:33.217Z,8.18
2023-01-15T12:37:33.234Z,8.16
2023-01-15T12:38:33.205Z,8.16
2023-01-15T12:39:33.175Z,8.14
2023-01-15T12:40:33.172Z,8.14
2023-01-15T12:41:33.163Z,8.09
2023-01-15T12:42:33.143Z,8.06
2023-01-15T12:43:33.274Z,8.03
2023-01-15T12:44:33.148Z,8.02
2023-01-15T12:45:33.105Z,8.03
2023-01-15T12:46:33.108Z,8.02
2023-01-15T12:47:33.096Z,7.96
2023-01-15T12:48:33.363Z,7.91
2023-01-15T12:49:33.043Z,7.98
2023-01-15T12:50:33.052Z,8.03
2023-01-15T12:51:33.046Z,8.08
2023-01-15T12:52:33.024Z,8.05
2023-01-15T12:53:33.032Z,7.96
2023-01-15T12:54:32.962Z,7.90
2023-01-15T12:55:32.972Z,7.84
2023-01-15T12:56:32.955Z,7.78
2023-01-15T12:57:32.953Z,7.80
2023-01-15T12:58:32.923Z,7.87
2023-01-15T12:59:32.913Z,7.87
2023-01-15T13:00:32.939Z,7.88
2023-01-15T13:01:32.921Z,7.93
2023-01-15T13:02:32.984Z,7.95
2023-01-15T13:03:32.851Z,7.95
2023-01-15T13:04:32.843Z,7.99
2023-01-15T13:05:32.852Z,8.05
2023-01-15T13:06:32.814Z,8.08
2023-01-15T13:07:32.818Z,8.06
2023-01-15T13:08:32.828Z,8.06
2023-01-15T13:09:32.796Z,8.05
2023-01-15T13:10:32.773Z,8.11
2023-01-15T13:11:32.785Z,8.14
2023-01-15T13:12:32.736Z,8.21
2023-01-15T13:13:32.740Z,8.23
2023-01-15T13:14:32.769Z,8.28
2023-01-15T13:15:32.713Z,8.32
2023-01-15T13:16:32.752Z,8.38
2023-01-15T13:17:32.683Z,8.34
2023-01-15T13:18:32.678Z,8.38
2023-01-15T13:19:32.653Z,8.32